EST,Max TemperatureF,Mean TemperatureF,Min TemperatureF,Max Dew PointF,MeanDew PointF,Min DewpointF,Max Humidity, Mean Humidity, Min Humidity, Max Sea Level PressureIn, Mean Sea Level PressureIn, Min Sea Level PressureIn, Max VisibilityMiles, Mean VisibilityMiles, Min VisibilityMiles, Max Wind SpeedMPH, Mean Wind SpeedMPH, Max Gust SpeedMPH,PrecipitationIn, CloudCover, Events, WindDirDegrees
2001-1-1,34,25,16,18,16,11,81,65,46,30.26,30.20,30.08,10,10,10,17,10,,0.00,3,,286
2001-1-2,27,22,17,15,9,5,71,59,49,30.38,30.34,30.26,10,10,10,20,10,23,0.00,2,,299
2001-1-3,30,21,12,13,11,7,81,63,47,30.35,30.23,30.05,10,10,10,14,7,,0.00,1,,260
2001-1-4,33,26,19,19,16,12,81,66,52,30.05,30.02,29.98,10,10,9,17,5,,0.00,6,,276
2001-1-5,28,21,14,27,22,10,96,88,74,29.97,29.67,29.54,8,4,0,15,4,21,0.12,7,Fog-Snow,168
2001-1-6,34,24,15,25,21,16,100,84,54,29.83,29.67,29.55,10,5,0,20,5,29,0.00,5,Fog-Rain,276
2001-1-7,39,30,21,28,24,18,88,75,57,29.88,29.85,29.82,10,8,6,6,3,,0.00,3,,81
2001-1-8,37,32,27,31,29,23,96,85,67,29.87,29.79,29.74,10,4,0,10,5,,0.10,5,Fog-Snow,326
2001-1-9,33,27,21,28,16,9,82,67,58,29.98,29.89,29.80,10,10,8,22,13,23,0.00,2,,293
2001-1-10,35,30,25,19,17,12,72,61,50,30.14,30.05,29.85,10,10,10,22,14,,0.00,3,,270
2001-1-11,46,34,21,28,22,13,78,61,49,30.12,30.06,30.02,10,10,10,12,6,,0.00,0,,267
2001-1-12,39,31,23,25,22,18,84,71,50,30.30,30.21,30.12,10,7,4,7,3,,0.00,0,,21
2001-1-13,39,28,18,26,22,16,93,79,55,30.39,30.34,30.30,10,5,3,6,1,,0.00,0,Thunderstorm,58
2001-1-14,39,29,19,31,25,18,100,87,70,30.31,30.25,30.16,8,4,1,6,3,,0.00,1,Rain,80
2001-1-15,37,35,33,32,30,28,89,85,75,30.15,30.08,29.98,2,1,0,8,3,,0.07,8,Fog-Rain,63
2001-1-16,39,36,32,32,30,27,93,81,68,30.19,30.03,29.95,10,6,0,18,7,,0.00,7,Fog,270
2001-1-17,37,32,28,29,27,25,88,77,67,30.25,30.21,30.18,10,8,6,12,7,,0.02,7,,271
2001-1-18,33,30,27,32,30,24,100,94,79,30.26,30.18,30.06,9,2,0,9,3,,0.10,7,Fog-Snow-Thunderstorm,109
2001-1-19,36,34,32,36,34,32,100,97,89,30.05,29.90,29.78,9,3,1,10,3,,0.84,8,Rain-Thunderstorm,21
2001-1-20,35,32,28,34,30,27,100,93,82,30.01,29.91,29.80,10,3,0,17,8,23,0.26,8,Fog-Rain-Snow,19
2001-1-21,28,21,14,24,14,7,93,73,51,30.41,30.12,29.83,10,6,0,22,15,28,0.04,3,Fog-Snow,306
2001-1-22,30,18,6,17,11,6,100,79,58,30.57,30.49,30.42,10,6,0,6,3,,0.00,0,Fog,125
2001-1-23,28,16,5,19,9,2,100,87,64,30.44,30.30,30.08,3,1,0,8,2,,0.00,0,Fog-Thunderstorm,113
2001-1-24,37,24,10,25,18,8,96,84,60,30.08,30.01,29.95,6,2,0,8,3,,0.00,0,Fog-Thunderstorm,280
2001-1-25,34,26,18,23,16,7,93,61,46,30.31,30.12,29.97,10,9,2,21,9,25,0.00,1,,310
2001-1-26,30,22,14,21,14,8,81,68,55,30.36,30.20,29.91,10,10,8,9,5,,0.00,1,,264
2001-1-27,39,34,28,30,25,18,93,77,55,30.16,29.91,29.81,10,7,2,29,9,36,0.00,7,Snow,304
2001-1-28,35,28,21,19,16,13,71,59,46,30.35,30.27,30.17,10,10,10,16,9,28,0.00,1,,284
2001-1-29,34,26,17,24,18,12,84,70,52,30.37,30.27,30.07,10,8,4,8,3,,0.00,3,,131
2001-1-30,42,36,30,32,30,25,96,82,65,30.04,29.66,29.50,8,3,0,10,5,,0.55,6,Fog-Rain,40
2001-1-31,44,37,30,36,31,28,100,90,62,29.91,29.63,29.52,10,4,0,17,4,,0.01,6,Fog-Rain-Thunderstorm,268